createdAt,value
2018-09-05T00:00:05.579Z,63.76
2018-09-05T00:02:33.256Z,63.87
2018-09-05T00:05:00.927Z,64.18
2018-09-05T00:07:28.576Z,63.85
2018-09-05T00:09:56.301Z,64.29
2018-09-05T00:12:23.971Z,63.97
2018-09-05T00:14:51.627Z,64.27
2018-09-05T00:17:19.237Z,64.52
2018-09-05T00:19:46.897Z,64.24
2018-09-05T00:22:14.534Z,64.47
2018-09-05T00:24:42.161Z,64.60
2018-09-05T00:27:09.816Z,64.40
2018-09-05T00:29:37.439Z,64.76
2018-09-05T00:32:05.283Z,64.47
2018-09-05T00:34:32.999Z,64.01
2018-09-05T00:37:00.657Z,64.25
2018-09-05T00:39:28.283Z,64.71
2018-09-05T00:41:55.933Z,64.89
2018-09-05T00:44:23.617Z,64.79
2018-09-05T00:46:51.275Z,64.62
2018-09-05T00:49:18.937Z,65.13
2018-09-05T00:51:46.528Z,64.85
2018-09-05T00:54:14.177Z,64.94
2018-09-05T00:56:41.840Z,64.98
2018-09-05T00:59:09.460Z,65.05
2018-09-05T01:01:37.086Z,64.81
2018-09-05T01:04:04.806Z,64.91
2018-09-05T01:06:32.588Z,64.88
2018-09-05T01:09:00.192Z,65.11
2018-09-05T01:11:27.859Z,65.37
2018-09-05T01:13:55.472Z,65.21
2018-09-05T01:16:23.340Z,65.21
2018-09-05T01:18:50.989Z,65.14
2018-09-05T01:21:18.644Z,65.27
2018-09-05T01:23:46.282Z,65.28
2018-09-05T01:26:13.943Z,65.16
2018-09-05T01:28:41.632Z,65.47
2018-09-05T01:31:09.279Z,65.61
2018-09-05T01:33:37.234Z,65.22
2018-09-05T01:36:18.319Z,65.42
2018-09-05T01:38:45.985Z,65.64
2018-09-05T01:41:14.558Z,65.31
2018-09-05T01:43:42.726Z,64.87
2018-09-05T01:46:10.521Z,65.42
2018-09-05T01:48:38.687Z,65.87
2018-09-05T01:51:06.364Z,65.78
2018-09-05T01:53:34.482Z,65.79
2018-09-05T01:56:02.804Z,66.04
2018-09-05T01:58:30.645Z,65.86
2018-09-05T02:00:58.312Z,66.08
2018-09-05T02:03:26.017Z,65.44
2018-09-05T02:05:53.636Z,65.17
2018-09-05T02:08:21.319Z,65.28
2018-09-05T02:10:49.060Z,65.09
2018-09-05T02:13:16.697Z,65.43
2018-09-05T02:15:44.375Z,65.50
2018-09-05T02:18:12.021Z,65.08
2018-09-05T02:20:39.651Z,65.28
2018-09-05T02:23:07.368Z,65.71
2018-09-05T02:25:35.097Z,65.49
2018-09-05T02:28:02.787Z,65.93
2018-09-05T02:30:30.444Z,66.05
2018-09-05T02:32:58.095Z,66.09
2018-09-05T02:35:25.747Z,65.76
2018-09-05T02:37:53.479Z,65.92
2018-09-05T02:40:21.139Z,65.95
2018-09-05T02:42:48.788Z,65.62
2018-09-05T02:45:16.472Z,65.99
2018-09-05T02:47:44.150Z,65.79
2018-09-05T02:50:11.800Z,66.03
2018-09-05T02:52:39.544Z,66.16
2018-09-05T02:55:07.220Z,66.10
2018-09-05T02:57:34.855Z,66.26
2018-09-05T03:00:02.563Z,66.13
2018-09-05T03:02:30.196Z,66.48
2018-09-05T03:04:57.805Z,66.37
2018-09-05T03:07:25.498Z,66.70
2018-09-05T03:09:53.155Z,66.14
2018-09-05T03:12:21.675Z,66.11
2018-09-05T03:14:50.795Z,66.27
2018-09-05T03:17:18.623Z,66.44
2018-09-05T03:19:46.267Z,66.05
2018-09-05T03:22:13.990Z,66.46
2018-09-05T03:24:41.673Z,66.17
2018-09-05T03:27:09.293Z,66.22
2018-09-05T03:29:36.972Z,66.20
2018-09-05T03:32:04.724Z,65.96
2018-09-05T03:34:32.382Z,66.60
2018-09-05T03:37:00.033Z,66.27
2018-09-05T03:39:27.636Z,66.44
2018-09-05T03:41:55.270Z,65.77
2018-09-05T03:44:22.953Z,65.87
2018-09-05T03:46:50.567Z,65.84
2018-09-05T03:49:18.209Z,66.18
2018-09-05T03:51:45.879Z,65.74
2018-09-05T03:54:13.559Z,65.88
2018-09-05T03:56:41.254Z,66.35
2018-09-05T03:59:09.006Z,66.35
2018-09-05T04:01:36.671Z,66.34
2018-09-05T04:04:04.342Z,67.07
2018-09-05T04:06:32.012Z,66.68
2018-09-05T04:08:59.668Z,66.57
2018-09-05T04:11:27.330Z,66.62
2018-09-05T04:13:55.048Z,66.57
2018-09-05T04:16:22.707Z,66.34
2018-09-05T04:18:50.361Z,66.78
2018-09-05T04:21:18.070Z,66.97
2018-09-05T04:23:46.803Z,66.66
2018-09-05T04:26:15.699Z,66.55
2018-09-05T04:28:43.459Z,66.43
2018-09-05T04:31:12.424Z,67.03
2018-09-05T04:33:40.532Z,66.59
2018-09-05T04:36:09.446Z,66.96
2018-09-05T04:38:37.067Z,66.67
2018-09-05T04:41:04.721Z,66.50
2018-09-05T04:43:32.390Z,66.39
2018-09-05T04:46:00.029Z,66.15
2018-09-05T04:48:27.696Z,66.11
2018-09-05T04:50:55.397Z,66.52
2018-09-05T04:53:23.103Z,66.66
2018-09-05T04:55:51.407Z,66.91
2018-09-05T04:58:19.133Z,66.84
2018-09-05T05:00:46.756Z,67.15
2018-09-05T05:03:14.531Z,66.47
2018-09-05T05:05:42.269Z,66.43
2018-09-05T05:08:09.861Z,66.27
2018-09-05T05:10:37.544Z,66.45
2018-09-05T05:13:05.312Z,66.47
2018-09-05T05:15:33.016Z,66.74
2018-09-05T05:18:00.676Z,66.82
2018-09-05T05:20:30.458Z,66.44
2018-09-05T05:22:58.100Z,66.32
2018-09-05T05:25:25.752Z,65.85
2018-09-05T05:27:53.551Z,65.74
2018-09-05T05:30:21.330Z,65.54
2018-09-05T05:32:49.216Z,65.88
2018-09-05T05:35:16.880Z,65.59
2018-09-05T05:37:44.508Z,66.06
2018-09-05T05:40:12.203Z,65.79
2018-09-05T05:42:39.851Z,65.70
2018-09-05T05:45:07.524Z,65.69
2018-09-05T05:47:35.276Z,65.43
2018-09-05T05:50:03.519Z,65.12
2018-09-05T05:52:31.691Z,64.13
2018-09-05T05:54:59.698Z,64.20
2018-09-05T05:57:27.692Z,63.96
2018-09-05T05:59:55.329Z,63.52
2018-09-05T06:02:22.985Z,63.02
2018-09-05T06:04:50.791Z,62.80
2018-09-05T06:07:18.429Z,62.44
2018-09-05T06:09:46.085Z,61.58
2018-09-05T06:12:13.894Z,62.12
2018-09-05T06:14:41.566Z,60.83
2018-09-05T06:17:09.302Z,60.84
2018-09-05T06:19:37.024Z,60.33
2018-09-05T06:22:04.779Z,59.70
2018-09-05T06:24:32.998Z,58.98
2018-09-05T06:27:00.719Z,59.65
2018-09-05T06:29:28.435Z,59.78
2018-09-05T06:31:56.081Z,57.82
2018-09-05T06:34:23.775Z,58.69
2018-09-05T06:36:51.439Z,59.28
2018-09-05T06:39:19.107Z,57.84
2018-09-05T06:41:46.764Z,57.02
2018-09-05T06:44:14.424Z,56.07
2018-09-05T06:46:42.084Z,55.76
2018-09-05T06:49:09.980Z,54.54
2018-09-05T06:51:37.642Z,54.07
2018-09-05T06:54:05.348Z,54.21
2018-09-05T06:56:33.044Z,54.79
2018-09-05T06:59:00.790Z,55.59
2018-09-05T07:01:28.444Z,55.78
2018-09-05T07:03:56.143Z,55.99
2018-09-05T07:06:23.795Z,55.29
2018-09-05T07:08:51.458Z,55.00
2018-09-05T07:11:19.184Z,54.83
2018-09-05T07:13:46.908Z,53.54
2018-09-05T07:16:14.577Z,52.51
2018-09-05T07:18:42.313Z,52.14
2018-09-05T07:21:10.196Z,52.06
2018-09-05T07:23:37.840Z,52.67
2018-09-05T07:26:05.692Z,52.46
2018-09-05T07:28:33.377Z,52.60
2018-09-05T07:31:01.142Z,51.87
2018-09-05T07:33:28.751Z,51.31
2018-09-05T07:35:56.387Z,51.97
2018-09-05T07:38:24.026Z,50.72
2018-09-05T07:40:51.779Z,51.00
2018-09-05T07:43:19.403Z,50.06
2018-09-05T07:45:47.041Z,48.82
2018-09-05T07:48:14.772Z,48.29
2018-09-05T07:50:42.444Z,46.52
2018-09-05T07:53:10.040Z,45.32
2018-09-05T07:55:37.732Z,44.31
2018-09-05T07:58:05.847Z,43.53
2018-09-05T08:00:33.521Z,42.45
2018-09-05T08:03:01.277Z,42.84
2018-09-05T08:05:28.897Z,40.31
2018-09-05T08:07:56.500Z,38.98
2018-09-05T08:10:24.189Z,36.71
2018-09-05T08:12:51.837Z,35.53
2018-09-05T08:15:19.495Z,33.24
2018-09-05T08:17:47.173Z,32.91
2018-09-05T08:20:14.796Z,32.65
2018-09-05T08:22:42.529Z,31.72
2018-09-05T08:25:10.190Z,30.28
2018-09-05T08:27:37.871Z,29.66
2018-09-05T08:30:05.694Z,29.58
2018-09-05T08:32:33.381Z,29.61
2018-09-05T08:35:01.188Z,28.85
2018-09-05T08:37:28.900Z,28.75
2018-09-05T08:39:56.406Z,29.66
2018-09-05T08:42:24.204Z,28.62
2018-09-05T08:44:52.003Z,28.09
2018-09-05T08:47:19.573Z,28.29
2018-09-05T08:49:47.223Z,26.77
2018-09-05T08:52:14.881Z,26.96
2018-09-05T08:54:42.597Z,25.84
2018-09-05T08:57:10.265Z,25.55
2018-09-05T08:59:37.921Z,25.78
2018-09-05T09:02:05.728Z,26.33
2018-09-05T09:04:33.412Z,25.23
2018-09-05T09:07:01.056Z,25.20
2018-09-05T09:09:28.744Z,24.99
2018-09-05T09:11:56.409Z,25.18
2018-09-05T09:14:24.104Z,25.15
2018-09-05T09:16:51.848Z,25.23
2018-09-05T09:19:19.471Z,25.29
2018-09-05T09:21:47.122Z,25.29
2018-09-05T09:24:14.889Z,24.86
2018-09-05T09:26:42.547Z,23.76
2018-09-05T09:29:10.205Z,24.61
2018-09-05T09:31:37.887Z,25.23
2018-09-05T09:34:05.555Z,24.64
2018-09-05T09:36:33.164Z,24.19
2018-09-05T09:39:00.829Z,23.21
2018-09-05T09:41:28.472Z,22.88
2018-09-05T09:43:56.110Z,23.96
2018-09-05T09:46:23.832Z,22.44
2018-09-05T09:48:51.614Z,23.80
2018-09-05T09:51:21.400Z,23.24
2018-09-05T09:53:49.171Z,24.57
2018-09-05T09:56:16.786Z,23.39
2018-09-05T09:58:44.464Z,22.67
2018-09-05T10:01:17.694Z,22.48
2018-09-05T10:03:50.865Z,22.08
2018-09-05T10:06:19.622Z,22.49
2018-09-05T10:08:52.863Z,22.51
2018-09-05T10:11:25.053Z,21.75
2018-09-05T10:13:58.351Z,22.30
2018-09-05T10:16:31.456Z,21.78
2018-09-05T10:18:59.157Z,21.36
2018-09-05T10:21:26.789Z,21.87
2018-09-05T10:23:54.472Z,20.39
2018-09-05T10:26:22.101Z,21.24
2018-09-05T10:28:49.744Z,21.70
2018-09-05T10:31:17.455Z,21.17
2018-09-05T10:33:45.068Z,20.61
2018-09-05T10:36:12.676Z,20.80
2018-09-05T10:38:40.329Z,20.71
2018-09-05T10:41:07.971Z,18.86
2018-09-05T10:43:35.630Z,19.60
2018-09-05T10:46:03.305Z,19.90
2018-09-05T10:48:31.009Z,18.48
2018-09-05T10:50:58.634Z,18.47
2018-09-05T10:53:26.313Z,19.30
2018-09-05T10:55:54.027Z,18.86
2018-09-05T10:58:21.745Z,17.89
2018-09-05T11:00:49.429Z,18.61
2018-09-05T11:03:17.341Z,17.73
2018-09-05T11:05:45.023Z,16.60
2018-09-05T11:08:12.704Z,16.03
2018-09-05T11:10:40.342Z,16.62
2018-09-05T11:13:08.004Z,16.28
2018-09-05T11:15:35.719Z,16.50
2018-09-05T11:18:03.560Z,16.61
2018-09-05T11:20:31.327Z,15.63
2018-09-05T11:22:58.997Z,15.42
2018-09-05T11:25:26.633Z,14.97
2018-09-05T11:27:54.284Z,15.41
2018-09-05T11:30:21.941Z,16.29
2018-09-05T11:32:49.583Z,15.16
2018-09-05T11:35:17.202Z,15.27
2018-09-05T11:37:44.857Z,13.96
2018-09-05T11:40:12.604Z,14.71
2018-09-05T11:42:40.204Z,14.97
2018-09-05T11:45:07.866Z,13.51
2018-09-05T11:47:35.507Z,13.96
2018-09-05T11:50:03.473Z,13.13
2018-09-05T11:52:31.108Z,12.69
2018-09-05T11:54:58.804Z,13.16
2018-09-05T11:57:26.473Z,13.47
2018-09-05T11:59:54.165Z,13.21
2018-09-05T12:02:21.941Z,13.02
2018-09-05T12:04:49.551Z,13.05
2018-09-05T12:07:17.292Z,12.44
2018-09-05T12:09:44.914Z,12.04
2018-09-05T12:12:12.676Z,11.94
2018-09-05T12:14:40.338Z,11.46
2018-09-05T12:17:08.360Z,11.98
2018-09-05T12:19:36.006Z,11.40
2018-09-05T12:22:03.677Z,11.59
2018-09-05T12:24:31.328Z,10.92
2018-09-05T12:26:58.964Z,11.11
2018-09-05T12:29:29.566Z,11.40
2018-09-05T12:31:57.201Z,11.54
2018-09-05T12:34:24.804Z,12.04
2018-09-05T12:36:52.503Z,12.07
2018-09-05T12:39:20.142Z,13.74
2018-09-05T12:41:47.762Z,15.80
2018-09-05T12:44:15.421Z,17.24
2018-09-05T12:46:43.042Z,18.44
2018-09-05T12:49:10.697Z,18.39
2018-09-05T12:51:38.477Z,18.55
2018-09-05T12:54:06.832Z,18.46
2018-09-05T12:56:34.451Z,17.69
2018-09-05T12:59:02.128Z,15.75
2018-09-05T13:01:29.733Z,14.66
2018-09-05T13:03:57.424Z,14.25
2018-09-05T13:06:25.068Z,13.46
2018-09-05T13:08:52.701Z,14.22
2018-09-05T13:11:20.339Z,16.19
2018-09-05T13:13:48.015Z,15.22
2018-09-05T13:16:15.688Z,16.55
2018-09-05T13:18:43.332Z,17.83
2018-09-05T13:21:11.145Z,18.16
2018-09-05T13:23:38.877Z,17.95
2018-09-05T13:26:06.515Z,17.28
2018-09-05T13:28:34.179Z,15.09
2018-09-05T13:31:01.786Z,15.09
2018-09-05T13:33:29.418Z,14.50
2018-09-05T13:35:57.152Z,13.37
2018-09-05T13:38:24.834Z,12.91
2018-09-05T13:40:52.424Z,12.89
2018-09-05T13:43:20.085Z,12.49
2018-09-05T13:45:47.682Z,12.92
2018-09-05T13:48:15.296Z,12.95
2018-09-05T13:50:43.049Z,12.82
2018-09-05T13:53:10.655Z,12.69
2018-09-05T13:55:38.271Z,12.49
2018-09-05T13:58:06.021Z,13.33
2018-09-05T14:00:33.629Z,12.42
2018-09-05T14:03:01.241Z,12.69
2018-09-05T14:05:29.008Z,13.12
2018-09-05T14:07:56.627Z,13.73
2018-09-05T14:10:24.238Z,15.66
2018-09-05T14:12:51.909Z,16.35
2018-09-05T14:15:19.532Z,17.81
2018-09-05T14:17:47.175Z,18.06
2018-09-05T14:20:14.993Z,18.58
2018-09-05T14:22:42.641Z,19.11
2018-09-05T14:25:10.269Z,18.64
2018-09-05T14:27:38.029Z,18.77
2018-09-05T14:30:05.661Z,20.58
2018-09-05T14:32:33.292Z,19.20
2018-09-05T14:35:00.980Z,17.78
2018-09-05T14:37:28.608Z,17.24
2018-09-05T14:39:56.259Z,16.17
2018-09-05T14:42:23.899Z,16.24
2018-09-05T14:44:51.519Z,16.75
2018-09-05T14:47:19.132Z,16.58
2018-09-05T14:49:46.860Z,16.60
2018-09-05T14:52:14.478Z,15.49
2018-09-05T14:54:42.109Z,15.32
2018-09-05T14:57:09.782Z,15.91
2018-09-05T14:59:37.432Z,15.58
2018-09-05T15:02:05.104Z,16.04
2018-09-05T15:04:32.756Z,16.17
2018-09-05T15:07:00.480Z,16.45
2018-09-05T15:09:28.112Z,16.47
2018-09-05T15:11:55.866Z,16.95
2018-09-05T15:14:23.476Z,16.86
2018-09-05T15:16:51.163Z,16.96
2018-09-05T15:19:18.800Z,17.28
2018-09-05T15:21:46.496Z,17.19
2018-09-05T15:24:14.124Z,16.98
2018-09-05T15:26:41.793Z,17.56
2018-09-05T15:29:09.412Z,17.38
2018-09-05T15:31:37.035Z,17.48
2018-09-05T15:34:04.824Z,17.95
2018-09-05T15:36:32.446Z,17.85
2018-09-05T15:39:00.063Z,18.84
2018-09-05T15:41:27.728Z,18.96
2018-09-05T15:43:55.346Z,18.78
2018-09-05T15:46:23.004Z,19.30
2018-09-05T15:48:50.669Z,20.19
2018-09-05T15:51:18.343Z,20.22
2018-09-05T15:53:46.014Z,20.41
2018-09-05T15:56:13.652Z,21.37
2018-09-05T15:58:41.288Z,22.13
2018-09-05T16:01:08.925Z,22.28
2018-09-05T16:03:36.764Z,22.62
2018-09-05T16:06:04.532Z,23.84
2018-09-05T16:08:32.155Z,24.88
2018-09-05T16:10:59.802Z,25.61
2018-09-05T16:13:27.470Z,25.32
2018-09-05T16:15:55.083Z,26.38
2018-09-05T16:18:22.736Z,26.79
2018-09-05T16:20:50.367Z,27.71
2018-09-05T16:23:18.000Z,28.46
2018-09-05T16:25:45.656Z,28.78
2018-09-05T16:28:13.276Z,28.74
2018-09-05T16:30:40.920Z,29.43
2018-09-05T16:33:08.588Z,30.61
2018-09-05T16:35:36.253Z,30.28
2018-09-05T16:38:04.050Z,31.16
2018-09-05T16:40:31.817Z,30.86
2018-09-05T16:42:59.467Z,31.64
2018-09-05T16:45:27.107Z,31.69
2018-09-05T16:47:54.840Z,31.76
2018-09-05T16:50:22.896Z,32.58
2018-09-05T16:52:50.508Z,33.02
2018-09-05T16:55:18.187Z,33.13
2018-09-05T16:57:45.815Z,33.78
2018-09-05T17:00:13.515Z,34.13
2018-09-05T17:02:41.206Z,34.37
2018-09-05T17:05:08.886Z,33.83
2018-09-05T17:07:36.571Z,33.55
2018-09-05T17:10:04.399Z,34.31
2018-09-05T17:12:32.037Z,33.86
2018-09-05T17:14:59.663Z,34.89
2018-09-05T17:17:27.345Z,34.66
2018-09-05T17:19:55.071Z,35.39
2018-09-05T17:22:22.810Z,35.79
2018-09-05T17:24:50.502Z,35.43
2018-09-05T17:27:18.180Z,35.67
2018-09-05T17:29:45.883Z,35.38
2018-09-05T17:32:13.576Z,36.39
2018-09-05T17:34:41.266Z,36.64
2018-09-05T17:37:08.983Z,36.38
2018-09-05T17:39:36.726Z,37.29
2018-09-05T17:42:04.428Z,37.40
2018-09-05T17:44:32.075Z,37.21
2018-09-05T17:46:59.764Z,37.38
2018-09-05T17:49:27.423Z,37.82
2018-09-05T17:51:55.119Z,37.99
2018-09-05T17:54:22.821Z,38.27
2018-09-05T17:56:50.520Z,38.55
2018-09-05T17:59:18.190Z,38.80
2018-09-05T18:01:45.946Z,38.80
2018-09-05T18:04:13.589Z,39.81
2018-09-05T18:06:41.236Z,40.58
2018-09-05T18:09:09.887Z,40.47
2018-09-05T18:11:37.547Z,41.11
2018-09-05T18:14:05.253Z,40.81
2018-09-05T18:16:32.894Z,41.07
2018-09-05T18:19:00.789Z,41.70
2018-09-05T18:21:28.645Z,42.47
2018-09-05T18:23:56.349Z,43.03
2018-09-05T18:26:23.988Z,43.62
2018-09-05T18:28:51.788Z,43.68
2018-09-05T18:31:19.606Z,44.02
2018-09-05T18:33:47.264Z,44.18
2018-09-05T18:36:14.916Z,44.18
2018-09-05T18:38:42.586Z,44.74
2018-09-05T18:41:10.327Z,44.01
2018-09-05T18:43:38.000Z,44.07
2018-09-05T18:46:05.808Z,44.03
2018-09-05T18:48:33.491Z,43.32
2018-09-05T18:51:01.433Z,43.62
2018-09-05T18:53:29.297Z,43.23
2018-09-05T18:55:57.009Z,44.34
2018-09-05T18:58:24.791Z,44.83
2018-09-05T19:00:52.495Z,45.08
2018-09-05T19:03:20.209Z,44.79
2018-09-05T19:05:47.883Z,44.61
2018-09-05T19:08:15.612Z,44.89
2018-09-05T19:10:43.292Z,45.13
2018-09-05T19:13:10.982Z,45.54
2018-09-05T19:15:38.692Z,45.16
2018-09-05T19:18:06.346Z,45.66
2018-09-05T19:20:34.031Z,45.75
2018-09-05T19:23:01.759Z,45.56
2018-09-05T19:25:29.404Z,45.61
2018-09-05T19:27:57.064Z,45.53
2018-09-05T19:30:24.780Z,45.26
2018-09-05T19:32:52.527Z,45.63
2018-09-05T19:35:20.153Z,45.94
2018-09-05T19:37:47.845Z,45.29
2018-09-05T19:40:15.509Z,45.04
2018-09-05T19:42:43.129Z,45.31
2018-09-05T19:45:10.852Z,45.46
2018-09-05T19:47:38.514Z,45.69
2018-09-05T19:50:06.501Z,45.31
2018-09-05T19:52:34.608Z,45.40
2018-09-05T19:55:02.305Z,45.66
2018-09-05T19:57:29.980Z,45.79
2018-09-05T19:59:57.694Z,45.92
2018-09-05T20:02:25.424Z,45.79
2018-09-05T20:04:53.326Z,45.52
2018-09-05T20:07:21.049Z,46.38
2018-09-05T20:09:48.854Z,46.95
2018-09-05T20:12:16.507Z,46.25
2018-09-05T20:14:44.156Z,46.39
2018-09-05T20:17:11.925Z,47.16
2018-09-05T20:19:39.727Z,47.98
2018-09-05T20:22:10.529Z,48.37
2018-09-05T20:24:39.946Z,47.97
2018-09-05T20:27:08.050Z,48.26
2018-09-05T20:29:35.959Z,48.30
2018-09-05T20:32:03.675Z,48.21
2018-09-05T20:34:31.516Z,48.87
2018-09-05T20:37:00.273Z,49.17
2018-09-05T20:39:27.931Z,49.49
2018-09-05T20:41:55.572Z,48.54
2018-09-05T20:44:23.250Z,47.83
2018-09-05T20:46:50.936Z,48.60
2018-09-05T20:49:18.629Z,48.39
2018-09-05T20:51:46.356Z,48.73
2018-09-05T20:54:14.032Z,49.17
2018-09-05T20:56:41.682Z,49.02
2018-09-05T20:59:09.372Z,49.61
2018-09-05T21:01:37.058Z,49.52
2018-09-05T21:04:04.716Z,49.41
2018-09-05T21:06:32.485Z,49.42
2018-09-05T21:09:00.150Z,50.21
2018-09-05T21:11:28.016Z,49.85
2018-09-05T21:13:55.723Z,51.18
2018-09-05T21:16:23.446Z,51.66
2018-09-05T21:18:51.202Z,51.51
2018-09-05T21:21:18.968Z,51.16
2018-09-05T21:23:47.623Z,51.54
2018-09-05T21:26:15.345Z,52.20
2018-09-05T21:28:43.181Z,51.92
2018-09-05T21:31:11.000Z,52.18
2018-09-05T21:33:38.756Z,52.30
2018-09-05T21:36:06.469Z,52.25
2018-09-05T21:38:34.179Z,52.70
2018-09-05T21:41:01.823Z,52.83
2018-09-05T21:43:29.615Z,52.50
2018-09-05T21:45:57.332Z,53.05
2018-09-05T21:48:24.982Z,52.84
2018-09-05T21:50:52.628Z,52.94
2018-09-05T21:53:20.294Z,52.97
2018-09-05T21:55:47.908Z,53.24
2018-09-05T21:58:15.561Z,53.52
2018-09-05T22:00:43.978Z,53.63
2018-09-05T22:03:11.604Z,53.86
2018-09-05T22:05:40.375Z,53.52
2018-09-05T22:08:08.135Z,53.18
2018-09-05T22:10:36.768Z,53.50
2018-09-05T22:13:04.455Z,53.31
2018-09-05T22:15:37.518Z,53.51
2018-09-05T22:18:05.269Z,53.69
2018-09-05T22:20:32.899Z,53.44
2018-09-05T22:23:00.583Z,53.50
2018-09-05T22:25:28.318Z,53.73
2018-09-05T22:27:56.063Z,54.06
2018-09-05T22:30:23.749Z,54.28
2018-09-05T22:32:51.515Z,53.85
2018-09-05T22:35:19.154Z,54.10
2018-09-05T22:37:46.840Z,54.23
2018-09-05T22:40:14.540Z,54.33
2018-09-05T22:42:53.283Z,53.97
2018-09-05T22:45:31.912Z,54.57
2018-09-05T22:50:20.275Z,54.17
2018-09-05T22:53:01.580Z,54.35
2018-09-05T22:57:47.029Z,54.20
2018-09-05T23:00:25.929Z,54.66
2018-09-05T23:07:09.613Z,54.22
2018-09-05T23:09:48.307Z,54.61
2018-09-05T23:12:27.117Z,54.53
2018-09-05T23:15:06.387Z,54.97
2018-09-05T23:18:46.949Z,55.01
2018-09-05T23:21:16.421Z,54.28
2018-09-05T23:23:54.842Z,54.68
2018-09-05T23:26:22.655Z,55.22
2018-09-05T23:28:50.407Z,55.32
2018-09-05T23:31:18.354Z,54.51
2018-09-05T23:33:45.979Z,55.09
2018-09-05T23:36:14.075Z,55.87
2018-09-05T23:38:41.737Z,55.66
2018-09-05T23:41:09.504Z,56.12
2018-09-05T23:43:37.127Z,55.65
2018-09-05T23:46:04.901Z,55.81
2018-09-05T23:48:32.505Z,56.03
2018-09-05T23:51:00.101Z,55.87
2018-09-05T23:53:27.780Z,55.50
2018-09-05T23:55:55.383Z,55.20
2018-09-05T23:58:23.501Z,55.85
